Main page
METAR-TAF:

METAR-TAF

Airports :

Edinburgh, Scotland

Edinburgh Airport

latitude: 55-57N, longitude: 003-21W, elevation: 41 m

Current weather observation

The report was made 23 minutes ago, at 03:20 UTC
Wind 7 kt from the South
Temperature 8°C
Humidity 71%
Pressure 1012 hPa
Visibility 10 km or more
Broken clouds at a height of 4500 ft

METAR: EGPH 290320Z 17007KT 9999 BKN045 08/03 Q1012

Time: 04:43 (03:43 UTC)

Forecast

The report was made 4 hours and 45 minutes ago, at 22:58 UTC
Forecast valid from 29 at 00 UTC to 29 at 24 UTC
Wind 5 kt from the South
Visibility 10 km or more
Scattered clouds at a height of 4500 ft
Probability 30% :
Temporary
from 29 at 08 UTC to 29 at 12 UTC
Visibility: 9000 m
light rain showers

TAF: EGPH 282258Z 2900/2924 19005KT 9999 SCT045 PROB30 TEMPO 2908/2912 9000 -SHRA

Weather observations and forecasts of more than 4000 airports (METAR and TAF reports).

The available stations are represented by yellow and red dots on the map.

Hover mouse over dot to see the name of the station.

Then click to see weather observations and forecasts.

To change the map : click on the green buttons with a black cross to zoom in, on the green button with a dash to zoom out, or on the green arrows for adjacent maps.


METAR-TAF: